Favola — IBFH — position and weather

sailwx.info

Track history (hours):
 
Tides and Currents Weather Stations Pressure Air Temp Water Temp Dewpoint Dewpoint Depression Visibility Wind Speed Wind Dir Waves Ship Positions

Favola

Last reported at 2014-Aug-01 15:34 UTC. Time now 2014-Aug-01 16:01 UTC.
Position N 35°48' E 014°38'.

Length 180 m; draft 9.4 m.

Type: Ship (hazmat cat A). MMSI: 247069800.

Date/timePositionNaut miles runAvg speedWind from/ knotsBaromVisibWave heightAir tempDewpointWater temp
2014-Aug-01 15:34N 35°48' E 014°38'4 3.7
2014-Aug-01 14:34N 35°50' E 014°42'9 9.1
2014-Aug-01 13:33N 35°58' E 014°49'0 0.2
2014-Aug-01 12:33N 35°58' E 014°49'0 0.0
2014-Aug-01 11:33N 35°58' E 014°49'0 0.0
2014-Aug-01 10:33N 35°58' E 014°49'0 0.0
2014-Aug-01 09:33N 35°58' E 014°49'0 0.0
2014-Aug-01 07:33N 35°58' E 014°49'0 0.1
2014-Aug-01 06:30N 35°58' E 014°49'0 0.0
2014-Aug-01 02:32N 35°58' E 014°49'0 0.0
2014-Aug-01 01:08N 35°57' E 014°49'0 0.0
2014-Jul-31 19:32N 35°58' E 014°49'0 0.0
2014-Jul-31 18:32N 35°58' E 014°49'0 0.0
2014-Jul-31 17:32N 35°58' E 014°49'0 0.0
2014-Jul-31 16:32N 35°58' E 014°49'0 0.0
2014-Jul-31 00:08N 35°57' E 014°49'0 0.0
2014-Jul-30 23:05N 35°57' E 014°49'0 0.0
2014-Jul-30 21:32N 35°58' E 014°49'0 0.0
2014-Jul-30 20:29N 35°58' E 014°49'0 0.0
2014-Jul-30 19:29N 35°57' E 014°49'0 0.0
2014-Jul-30 18:29N 35°58' E 014°49'0 0.0
2014-Jul-30 16:20N 35°58' E 014°49'0 0.0
2014-Jul-30 15:32N 35°58' E 014°49'0 0.0
2014-Jul-30 14:32N 35°58' E 014°49'0 0.0
2014-Jul-30 13:31N 35°58' E 014°49'0 0.0
2014-Jul-30 12:31N 35°58' E 014°49'0 0.0
2014-Jul-30 11:31N 35°58' E 014°49'0 0.1
2014-Jul-30 10:31N 35°58' E 014°49'0 0.0
2014-Jul-30 09:31N 35°58' E 014°49'0 0.0
2014-Jul-30 08:31N 35°58' E 014°49'0 0.0
2014-Jul-30 07:31N 35°58' E 014°49'0 0.0
2014-Jul-30 06:25N 35°58' E 014°49'0 0.0
2014-Jul-30 05:28N 35°58' E 014°49'0 0.0
2014-Jul-30 04:31N 35°58' E 014°49'0 0.0
2014-Jul-30 02:31N 35°58' E 014°49'0 0.0
2014-Jul-30 01:31N 35°58' E 014°49'0 0.0
2014-Jul-30 00:31N 35°58' E 014°49'0 0.0
2014-Jul-29 23:31N 35°58' E 014°49'0 0.3
2014-Jul-29 22:33N 35°58' E 014°49'8 8.0
2014-Jul-29 21:33N 35°60' E 014°39'1111.3
2014-Jul-29 20:33N 36°06' E 014°27'1111.0
2014-Jul-29 19:33N 36°11' E 014°16'1111.2
2014-Jul-29 18:33N 36°16' E 014°03'1111.1
2014-Jul-29 17:33N 36°20' E 013°51'1111.0
2014-Jul-29 16:33N 36°25' E 013°38'1111.1
2014-Jul-29 15:33N 36°29' E 013°25'1211.9
2014-Jul-29 14:33N 36°34' E 013°12'1312.5
2014-Jul-29 13:33N 36°38' E 012°57'1212.1
2014-Jul-29 12:33N 36°43' E 012°44'1212.0
2014-Jul-29 11:33N 36°48' E 012°30'1211.5
2014-Jul-29 10:33N 36°53' E 012°17'1111.4
2014-Jul-29 09:33N 36°57' E 012°04'1211.6
2014-Jul-29 08:32N 37°03' E 011°51'1111.5
2014-Jul-29 07:33N 37°09' E 011°39'3411.3
2014-Jul-29 04:32N 37°26' E 011°01'1111.4
2014-Jul-29 03:33N 37°28' E 010°48'1211.6
2014-Jul-29 02:33N 37°31' E 010°34'1212.0
2014-Jul-29 01:32N 37°33' E 010°18'1212.3
2014-Jul-29 00:32N 37°33' E 010°03'1212.2
2014-Jul-28 23:33N 37°31' E 009°48'1211.8
2014-Jul-28 22:33N 37°28' E 009°34'1211.4
2014-Jul-28 21:33N 37°26' E 009°19'3711.0
2014-Jul-28 18:12N 37°18' E 008°34'910.8
2014-Jul-28 17:21N 37°18' E 008°22'911.1
2014-Jul-28 16:33N 37°18' E 008°11'8211.4
2014-Jul-28 09:23N 37°20' E 006°29'1011.3
2014-Jul-28 08:31N 37°20' E 006°16'1111.6
2014-Jul-28 07:33N 37°19' E 006°02'1312.6
2014-Jul-28 06:33N 37°17' E 005°46'1510.6
2014-Jul-28 05:08N 37°16' E 005°28'914.5
2014-Jul-28 04:29N 37°14' E 005°16'10 9.3
2014-Jul-28 03:22N 37°13' E 005°03'911.4
2014-Jul-28 02:33N 37°12' E 004°51'2511.4
2014-Jul-28 00:23N 37°11' E 004°20'911.2
2014-Jul-27 23:33N 37°10' E 004°09'1111.1
2014-Jul-27 22:33N 37°10' E 003°55'1111.4
2014-Jul-27 21:33N 37°10' E 003°41'1111.3
2014-Jul-27 20:34N 37°10' E 003°27'2411.7
2014-Jul-27 18:31N 37°10' E 002°57'1111.2
2014-Jul-27 17:32N 37°08' E 002°43'50211.7
2014-Jul-25 22:31N 36°10' W 007°38'1111.8
2014-Jul-25 21:34N 36°13' W 007°52'1211.5
2014-Jul-25 20:32N 36°15' W 008°06'1211.5
2014-Jul-25 19:30N 36°18' W 008°20'1211.6
2014-Jul-25 18:27N 36°21' W 008°35'1011.4
2014-Jul-25 17:33N 36°24' W 008°47'1211.7
2014-Jul-25 16:33N 36°26' W 009°02'6910.8
2014-Jul-25 10:09N 37°24' W 009°49'911.8
2014-Jul-25 09:22N 37°33' W 009°52'1111.7
2014-Jul-25 08:24N 37°44' W 009°55'2411.6
2014-Jul-25 06:22N 38°07' W 010°02'2311.7
2014-Jul-25 04:24N 38°29' W 010°09'1111.6
2014-Jul-25 03:25N 38°40' W 010°12'1211.8
2014-Jul-25 02:26N 38°52' W 010°11'3411.5
2014-Jul-24 23:27N 39°26' W 010°05'1112.1
2014-Jul-24 22:33N 39°35' W 009°57'1711.9
2014-Jul-24 21:08N 39°48' W 009°43'  
Track history (hours):
 
Tides and Currents Weather Stations Pressure Air Temp Water Temp Dewpoint Dewpoint Depression Visibility Wind Speed Wind Dir Waves Ship Positions

Favola

Last reported at 2014-Aug-01 15:34 UTC. Time now 2014-Aug-01 16:01 UTC.
Position N 35°48' E 014°38'.

Length 180 m; draft 9.4 m.

Type: Ship (hazmat cat A). MMSI: 247069800.

Date/timePositionNaut miles runAvg speedWind from/ knotsBaromVisibWave heightAir tempDewpointWater temp
2014-Aug-01 15:34N 35°48' E 014°38'4 3.7
2014-Aug-01 14:34N 35°50' E 014°42'9 9.1
2014-Aug-01 13:33N 35°58' E 014°49'0 0.2
2014-Aug-01 12:33N 35°58' E 014°49'0 0.0
2014-Aug-01 11:33N 35°58' E 014°49'0 0.0
2014-Aug-01 10:33N 35°58' E 014°49'0 0.0
2014-Aug-01 09:33N 35°58' E 014°49'0 0.0
2014-Aug-01 07:33N 35°58' E 014°49'0 0.1
2014-Aug-01 06:30N 35°58' E 014°49'0 0.0
2014-Aug-01 02:32N 35°58' E 014°49'0 0.0
2014-Aug-01 01:08N 35°57' E 014°49'0 0.0
2014-Jul-31 19:32N 35°58' E 014°49'0 0.0
2014-Jul-31 18:32N 35°58' E 014°49'0 0.0
2014-Jul-31 17:32N 35°58' E 014°49'0 0.0
2014-Jul-31 16:32N 35°58' E 014°49'0 0.0
2014-Jul-31 00:08N 35°57' E 014°49'0 0.0
2014-Jul-30 23:05N 35°57' E 014°49'0 0.0
2014-Jul-30 21:32N 35°58' E 014°49'0 0.0
2014-Jul-30 20:29N 35°58' E 014°49'0 0.0
2014-Jul-30 19:29N 35°57' E 014°49'0 0.0
2014-Jul-30 18:29N 35°58' E 014°49'0 0.0
2014-Jul-30 16:20N 35°58' E 014°49'0 0.0
2014-Jul-30 15:32N 35°58' E 014°49'0 0.0
2014-Jul-30 14:32N 35°58' E 014°49'0 0.0
2014-Jul-30 13:31N 35°58' E 014°49'0 0.0
2014-Jul-30 12:31N 35°58' E 014°49'0 0.0
2014-Jul-30 11:31N 35°58' E 014°49'0 0.1
2014-Jul-30 10:31N 35°58' E 014°49'0 0.0
2014-Jul-30 09:31N 35°58' E 014°49'0 0.0
2014-Jul-30 08:31N 35°58' E 014°49'0 0.0
2014-Jul-30 07:31N 35°58' E 014°49'0 0.0
2014-Jul-30 06:25N 35°58' E 014°49'0 0.0
2014-Jul-30 05:28N 35°58' E 014°49'0 0.0
2014-Jul-30 04:31N 35°58' E 014°49'0 0.0
2014-Jul-30 02:31N 35°58' E 014°49'0 0.0
2014-Jul-30 01:31N 35°58' E 014°49'0 0.0
2014-Jul-30 00:31N 35°58' E 014°49'0 0.0
2014-Jul-29 23:31N 35°58' E 014°49'0 0.3
2014-Jul-29 22:33N 35°58' E 014°49'8 8.0
2014-Jul-29 21:33N 35°60' E 014°39'1111.3
2014-Jul-29 20:33N 36°06' E 014°27'1111.0
2014-Jul-29 19:33N 36°11' E 014°16'1111.2
2014-Jul-29 18:33N 36°16' E 014°03'1111.1
2014-Jul-29 17:33N 36°20' E 013°51'1111.0
2014-Jul-29 16:33N 36°25' E 013°38'1111.1
2014-Jul-29 15:33N 36°29' E 013°25'1211.9
2014-Jul-29 14:33N 36°34' E 013°12'1312.5
2014-Jul-29 13:33N 36°38' E 012°57'1212.1
2014-Jul-29 12:33N 36°43' E 012°44'1212.0
2014-Jul-29 11:33N 36°48' E 012°30'1211.5
2014-Jul-29 10:33N 36°53' E 012°17'1111.4
2014-Jul-29 09:33N 36°57' E 012°04'1211.6
2014-Jul-29 08:32N 37°03' E 011°51'1111.5
2014-Jul-29 07:33N 37°09' E 011°39'3411.3
2014-Jul-29 04:32N 37°26' E 011°01'1111.4
2014-Jul-29 03:33N 37°28' E 010°48'1211.6
2014-Jul-29 02:33N 37°31' E 010°34'1212.0
2014-Jul-29 01:32N 37°33' E 010°18'1212.3
2014-Jul-29 00:32N 37°33' E 010°03'1212.2
2014-Jul-28 23:33N 37°31' E 009°48'1211.8
2014-Jul-28 22:33N 37°28' E 009°34'1211.4
2014-Jul-28 21:33N 37°26' E 009°19'3711.0
2014-Jul-28 18:12N 37°18' E 008°34'910.8
2014-Jul-28 17:21N 37°18' E 008°22'911.1
2014-Jul-28 16:33N 37°18' E 008°11'8211.4
2014-Jul-28 09:23N 37°20' E 006°29'1011.3
2014-Jul-28 08:31N 37°20' E 006°16'1111.6
2014-Jul-28 07:33N 37°19' E 006°02'1312.6
2014-Jul-28 06:33N 37°17' E 005°46'1510.6
2014-Jul-28 05:08N 37°16' E 005°28'914.5
2014-Jul-28 04:29N 37°14' E 005°16'10 9.3
2014-Jul-28 03:22N 37°13' E 005°03'911.4
2014-Jul-28 02:33N 37°12' E 004°51'2511.4
2014-Jul-28 00:23N 37°11' E 004°20'911.2
2014-Jul-27 23:33N 37°10' E 004°09'1111.1
2014-Jul-27 22:33N 37°10' E 003°55'1111.4
2014-Jul-27 21:33N 37°10' E 003°41'1111.3
2014-Jul-27 20:34N 37°10' E 003°27'2411.7
2014-Jul-27 18:31N 37°10' E 002°57'1111.2
2014-Jul-27 17:32N 37°08' E 002°43'50211.7
2014-Jul-25 22:31N 36°10' W 007°38'1111.8
2014-Jul-25 21:34N 36°13' W 007°52'1211.5
2014-Jul-25 20:32N 36°15' W 008°06'1211.5
2014-Jul-25 19:30N 36°18' W 008°20'1211.6
2014-Jul-25 18:27N 36°21' W 008°35'1011.4
2014-Jul-25 17:33N 36°24' W 008°47'1211.7
2014-Jul-25 16:33N 36°26' W 009°02'6910.8
2014-Jul-25 10:09N 37°24' W 009°49'911.8
2014-Jul-25 09:22N 37°33' W 009°52'1111.7
2014-Jul-25 08:24N 37°44' W 009°55'2411.6
2014-Jul-25 06:22N 38°07' W 010°02'2311.7
2014-Jul-25 04:24N 38°29' W 010°09'1111.6
2014-Jul-25 03:25N 38°40' W 010°12'1211.8
2014-Jul-25 02:26N 38°52' W 010°11'3411.5
2014-Jul-24 23:27N 39°26' W 010°05'1112.1
2014-Jul-24 22:33N 39°35' W 009°57'1711.9
2014-Jul-24 21:08N 39°48' W 009°43'  

Dump ship's entire track history